Time;durP1;ratioP1;P1;durP2;ratioP2;P2;SDS_P1;SDS_P2;PMS_P1;PMS_P2;Temp;Humidity;BMP_temperature;BMP_pressure;BME280_temperature;BME280_humidity;BME280_pressure;Samples;Min_cycle;Max_cycle;Signal;HPM_P1;HPM_P2
2022/06/30 00:08:19;;;;;;;0.20;0.00;;;22.70;99.90;;;;;;21205410;28;20227;-76
2022/06/30 00:18:24;;;;;;;0.20;0.00;;;22.70;99.90;;;;;;21234978;28;20258;-74
2022/06/30 00:28:31;;;;;;;0.20;0.00;;;22.40;99.90;;;;;;21239402;28;20260;-76
2022/06/30 00:38:37;;;;;;;0.20;0.00;;;22.60;99.90;;;;;;21238093;28;20187;-76
2022/06/30 00:48:41;;;;;;;0.20;0.00;;;22.60;99.90;;;;;;21237962;28;20742;-74
2022/06/30 00:58:49;;;;;;;0.20;0.00;;;22.20;99.90;;;;;;21235522;28;20191;-74
2022/06/30 01:08:54;;;;;;;0.20;0.00;;;22.40;99.90;;;;;;21236095;28;20239;-75
2022/06/30 01:18:59;;;;;;;0.20;0.00;;;22.20;99.90;;;;;;21234402;28;20329;-74
2022/06/30 01:29:08;;;;;;;0.20;0.00;;;22.00;99.90;;;;;;21231193;28;20231;-75
2022/06/30 01:39:11;;;;;;;0.20;0.00;;;22.00;99.90;;;;;;21188470;28;20265;-74
2022/06/30 01:49:17;;;;;;;0.20;0.00;;;21.90;99.90;;;;;;21145173;28;20231;-74
2022/06/30 01:59:21;;;;;;;0.20;0.10;;;21.90;99.90;;;;;;21145145;28;20263;-72
2022/06/30 02:09:26;;;;;;;0.20;0.00;;;21.70;99.90;;;;;;21145357;28;20275;-75
2022/06/30 02:19:30;;;;;;;0.20;0.00;;;21.80;99.90;;;;;;21144644;28;20232;-74
2022/06/30 02:29:35;;;;;;;0.20;0.00;;;21.80;99.90;;;;;;21144122;28;20204;-75
2022/06/30 02:39:40;;;;;;;0.20;0.00;;;21.60;99.90;;;;;;21212351;28;20251;-75
2022/06/30 02:49:45;;;;;;;0.20;0.00;;;21.50;99.90;;;;;;21226249;28;20249;-75
2022/06/30 02:59:50;;;;;;;0.20;0.00;;;21.50;99.90;;;;;;21225642;28;20211;-74
2022/06/30 03:09:55;;;;;;;0.20;0.00;;;21.40;99.90;;;;;;21225814;28;20217;-72
2022/06/30 03:19:59;;;;;;;0.20;0.00;;;21.30;99.90;;;;;;21223524;28;20226;-73
2022/06/30 03:30:05;;;;;;;0.20;0.00;;;21.10;99.90;;;;;;21223165;28;20215;-69
2022/06/30 03:40:10;;;;;;;0.20;0.00;;;21.30;99.90;;;;;;21147303;28;20196;-74
2022/06/30 03:50:15;;;;;;;0.20;0.00;;;21.20;99.90;;;;;;21137611;28;20236;-74
2022/06/30 04:00:20;;;;;;;0.20;0.00;;;21.00;99.90;;;;;;21136202;28;20250;-74
2022/06/30 04:10:25;;;;;;;0.20;0.10;;;21.10;99.90;;;;;;21137057;28;20215;-73
2022/06/30 04:20:29;;;;;;;0.20;0.00;;;21.10;99.90;;;;;;21137375;28;20231;-73
2022/06/30 04:51:19;;;;;;;0.20;0.00;;;20.90;99.90;;;;;;21220253;28;20198;-74
2022/06/30 05:01:23;;;;;;;0.20;0.00;;;21.20;99.90;;;;;;21229407;28;20264;-72
2022/06/30 05:11:28;;;;;;;0.20;0.00;;;21.50;99.90;;;;;;21234906;28;20367;-73
2022/06/30 05:21:32;;;;;;;0.20;0.00;;;22.00;99.90;;;;;;21233771;28;20231;-73
2022/06/30 05:31:37;;;;;;;0.20;0.00;;;22.30;99.90;;;;;;21227027;28;20183;-75
2022/06/30 05:41:41;;;;;;;0.20;0.00;;;22.70;99.90;;;;;;21146996;28;20316;-76
2022/06/30 05:51:47;;;;;;;0.20;0.00;;;23.00;99.90;;;;;;21143268;28;20204;-73
2022/06/30 06:01:50;;;;;;;0.20;0.00;;;23.40;99.90;;;;;;21145708;28;20283;-73
2022/06/30 06:11:56;;;;;;;0.20;0.00;;;23.90;99.90;;;;;;21141976;28;20200;-73
2022/06/30 06:22:00;;;;;;;0.20;0.00;;;24.20;99.90;;;;;;21143667;28;20236;-72
2022/06/30 06:32:06;;;;;;;0.20;0.00;;;24.50;99.90;;;;;;21145163;28;20256;-71
2022/06/30 06:42:10;;;;;;;0.20;0.00;;;24.40;99.90;;;;;;21225193;28;20230;-74
2022/06/30 06:52:15;;;;;;;0.20;0.00;;;24.80;99.90;;;;;;21223062;28;20219;-75
2022/06/30 07:02:19;;;;;;;0.20;0.00;;;25.00;99.90;;;;;;21218573;28;20282;-72
2022/06/30 07:12:24;;;;;;;0.20;0.00;;;25.30;99.90;;;;;;21221720;28;20207;-70
2022/06/30 07:22:30;;;;;;;0.20;0.08;;;25.10;99.90;;;;;;21221100;28;20231;-75
2022/06/30 07:32:36;;;;;;;0.20;0.00;;;25.40;99.90;;;;;;21217462;28;20187;-71
2022/06/30 07:42:40;;;;;;;0.20;0.00;;;25.60;99.90;;;;;;21180606;28;20243;-72
2022/06/30 07:52:46;;;;;;;0.20;0.00;;;25.60;99.90;;;;;;21173995;28;20211;-72
2022/06/30 08:02:49;;;;;;;0.20;0.00;;;25.50;99.90;;;;;;21134451;28;20243;-72
2022/06/30 08:12:54;;;;;;;0.20;0.00;;;25.60;99.90;;;;;;21137332;28;20212;-72
2022/06/30 08:22:58;;;;;;;0.20;0.10;;;25.70;99.90;;;;;;21215698;28;20275;-71
2022/06/30 08:33:04;;;;;;;0.20;0.00;;;25.60;99.90;;;;;;21219572;28;20214;-72
2022/06/30 08:43:08;;;;;;;0.20;0.00;;;26.00;99.90;;;;;;21231139;28;20219;-72
2022/06/30 08:53:17;;;;;;;0.20;0.10;;;25.90;99.90;;;;;;21230667;28;20198;-72
2022/06/30 09:03:21;;;;;;;0.20;0.00;;;26.00;99.90;;;;;;21230726;28;20275;-69
2022/06/30 09:13:38;;;;;;;0.20;0.03;;;25.80;99.90;;;;;;21230532;28;20255;-70
2022/06/30 09:23:44;;;;;;;0.20;0.00;;;26.00;99.90;;;;;;21231046;28;20294;-71
2022/06/30 09:33:50;;;;;;;0.20;0.00;;;26.10;99.90;;;;;;21208241;28;20208;-70
2022/06/30 09:43:54;;;;;;;0.20;0.00;;;26.00;99.90;;;;;;21136372;28;20207;-65
2022/06/30 09:54:10;;;;;;;0.20;0.10;;;26.00;99.90;;;;;;21203581;28;20255;-69
2022/06/30 10:04:17;;;;;;;0.20;0.00;;;26.60;99.90;;;;;;21146349;28;20224;-70
2022/06/30 10:14:25;;;;;;;0.20;0.00;;;27.00;99.90;;;;;;21207596;28;20194;-70
2022/06/30 10:24:29;;;;;;;0.20;0.00;;;27.40;99.90;;;;;;21217973;28;20251;-71
2022/06/30 10:34:40;;;;;;;0.20;0.00;;;27.60;99.90;;;;;;21200467;28;20193;-70
2022/06/30 10:44:44;;;;;;;0.20;0.00;;;27.80;99.90;;;;;;21112049;28;20994;-71
2022/06/30 10:55:11;;;;;;;0.20;0.00;;;28.10;99.90;;;;;;21126497;28;20195;-70
2022/06/30 11:05:26;;;;;;;0.20;0.00;;;28.30;99.90;;;;;;21113039;28;20283;-71
2022/06/30 11:15:57;;;;;;;0.20;0.00;;;28.70;99.90;;;;;;21147645;28;20275;-70
2022/06/30 11:36:25;;;;;;;0.20;0.00;;;29.20;99.90;;;;;;21214812;28;20207;-69
2022/06/30 11:46:29;;;;;;;0.20;0.00;;;29.80;99.90;;;;;;21233474;28;20235;-70
2022/06/30 11:56:46;;;;;;;0.20;0.00;;;29.40;99.90;;;;;;21235848;28;20255;-72
2022/06/30 12:06:50;;;;;;;0.20;0.00;;;30.00;99.90;;;;;;21236449;28;20291;-71
2022/06/30 12:16:58;;;;;;;0.20;0.00;;;30.70;99.90;;;;;;21252768;28;20275;-71
2022/06/30 12:27:02;;;;;;;0.20;0.00;;;30.00;99.90;;;;;;21247464;28;20238;-71
2022/06/30 12:37:07;;;;;;;0.20;0.00;;;29.40;99.90;;;;;;21248830;28;20180;-71
2022/06/30 12:47:12;;;;;;;0.20;0.00;;;29.50;99.90;;;;;;21247770;28;20217;-71
2022/06/30 12:57:18;;;;;;;0.20;0.00;;;31.20;99.90;;;;;;21249662;28;20199;-72
2022/06/30 13:07:22;;;;;;;0.20;0.00;;;31.00;99.90;;;;;;21250752;28;20235;-72
2022/06/30 13:17:27;;;;;;;0.20;0.00;;;31.90;99.90;;;;;;21248912;28;20239;-71
2022/06/30 13:27:31;;;;;;;0.20;0.00;;;32.70;99.90;;;;;;21246790;28;20239;-70
2022/06/30 13:37:37;;;;;;;0.20;0.00;;;33.70;99.90;;;;;;21232296;28;20206;-71
2022/06/30 13:47:41;;;;;;;0.20;0.00;;;33.80;99.90;;;;;;21243955;28;20249;-70
2022/06/30 13:57:46;;;;;;;0.20;0.00;;;34.40;99.90;;;;;;21241898;28;20267;-70
2022/06/30 14:07:51;;;;;;;0.20;0.00;;;34.20;99.90;;;;;;21242035;28;20234;-71
2022/06/30 14:17:56;;;;;;;0.20;0.00;;;33.90;99.90;;;;;;21241541;28;20235;-70
2022/06/30 14:28:00;;;;;;;0.20;0.00;;;33.90;99.90;;;;;;21238754;28;20291;-69
2022/06/30 14:38:05;;;;;;;0.20;0.00;;;35.10;99.90;;;;;;21228408;28;20270;-70
2022/06/30 14:48:09;;;;;;;0.20;0.00;;;34.80;99.90;;;;;;21236309;28;20238;-72
2022/06/30 14:58:14;;;;;;;0.20;0.00;;;35.00;99.90;;;;;;21238502;28;20195;-71
2022/06/30 15:08:18;;;;;;;0.20;0.00;;;32.60;99.90;;;;;;21235230;28;20290;-69
2022/06/30 15:18:23;;;;;;;0.20;0.00;;;32.40;99.90;;;;;;21236694;28;20235;-72
2022/06/30 15:28:27;;;;;;;0.20;0.00;;;32.70;99.90;;;;;;21236841;28;20279;-71
2022/06/30 15:38:34;;;;;;;0.20;0.00;;;33.30;99.90;;;;;;21185627;28;20227;-70
2022/06/30 15:48:38;;;;;;;0.20;0.00;;;33.60;99.90;;;;;;21149633;28;20331;-72
2022/06/30 15:58:43;;;;;;;0.20;0.00;;;32.50;99.90;;;;;;21148130;28;20204;-70
2022/06/30 16:08:47;;;;;;;0.20;0.00;;;33.60;99.90;;;;;;21189317;28;20279;-71
2022/06/30 16:18:53;;;;;;;0.20;0.00;;;32.90;99.90;;;;;;21230045;28;20227;-71
2022/06/30 16:28:57;;;;;;;0.20;0.00;;;32.00;99.90;;;;;;21231738;28;20234;-72
2022/06/30 16:39:03;;;;;;;0.20;0.00;;;31.50;99.90;;;;;;21205967;28;20227;-74
2022/06/30 16:49:07;;;;;;;0.20;0.00;;;29.90;99.90;;;;;;21229491;28;20225;-81
2022/06/30 16:59:13;;;;;;;0.20;0.10;;;29.20;99.90;;;;;;21242389;28;20206;-70
2022/06/30 17:09:16;;;;;;;0.20;0.00;;;28.80;99.90;;;;;;21246226;28;20250;-72
2022/06/30 17:19:22;;;;;;;0.20;0.00;;;28.60;99.90;;;;;;21245491;28;20250;-72
2022/06/30 17:29:26;;;;;;;0.20;0.00;;;27.60;99.90;;;;;;21247110;28;20250;-72
2022/06/30 17:39:33;;;;;;;0.20;0.00;;;27.50;99.90;;;;;;21188476;28;20195;-69
2022/06/30 17:49:37;;;;;;;0.20;0.00;;;26.90;99.90;;;;;;21161437;28;20230;-72
2022/06/30 17:59:43;;;;;;;0.20;0.00;;;26.50;99.90;;;;;;21160757;28;20293;-74
2022/06/30 18:20:12;;;;;;;0.20;0.00;;;27.00;99.90;;;;;;21209543;28;20248;-72
2022/06/30 18:30:15;;;;;;;0.20;0.10;;;27.40;99.90;;;;;;21239283;28;20296;-73
2022/06/30 18:40:25;;;;;;;0.20;0.10;;;26.20;99.90;;;;;;21174222;28;20249;-71
2022/06/30 18:50:29;;;;;;;0.20;0.00;;;25.30;99.90;;;;;;21153273;28;20216;-70
2022/06/30 19:00:35;;;;;;;0.20;0.00;;;25.20;99.90;;;;;;21203805;28;20221;-73
2022/06/30 19:10:39;;;;;;;0.20;0.00;;;24.70;99.90;;;;;;21238089;28;20223;-71
2022/06/30 19:20:46;;;;;;;0.20;0.00;;;24.40;99.90;;;;;;21235679;28;20223;-71
2022/06/30 19:30:50;;;;;;;0.20;0.00;;;24.30;99.90;;;;;;21234140;28;20249;-73
2022/06/30 19:40:55;;;;;;;0.20;0.00;;;24.50;99.90;;;;;;21164878;28;20196;-72
2022/06/30 19:50:59;;;;;;;0.20;0.00;;;24.30;99.90;;;;;;21149835;28;20219;-73
2022/06/30 20:01:11;;;;;;;0.20;0.00;;;24.20;99.90;;;;;;21220073;28;20205;-71
2022/06/30 20:11:31;;;;;;;0.20;0.00;;;24.20;99.90;;;;;;21221447;28;20225;-72
2022/06/30 20:21:36;;;;;;;0.20;0.00;;;24.20;99.90;;;;;;21235909;28;20219;-72
2022/06/30 20:31:48;;;;;;;0.20;0.00;;;24.40;99.90;;;;;;21244559;28;20236;-71
2022/06/30 20:41:53;;;;;;;0.20;0.00;;;24.10;99.90;;;;;;21248286;28;20298;-73
2022/06/30 20:51:57;;;;;;;0.20;0.00;;;24.10;99.90;;;;;;21248368;28;20338;-75
2022/06/30 21:02:02;;;;;;;0.20;0.00;;;24.10;99.90;;;;;;21249115;28;20194;-75
2022/06/30 21:12:06;;;;;;;0.20;0.00;;;24.20;99.90;;;;;;21249380;28;20220;-75
2022/06/30 21:22:11;;;;;;;0.20;0.00;;;24.00;99.90;;;;;;21247711;28;20241;-74
2022/06/30 21:32:15;;;;;;;0.20;0.00;;;23.90;99.90;;;;;;21247111;28;20223;-72
2022/06/30 21:42:21;;;;;;;0.20;0.00;;;24.00;99.90;;;;;;21244997;28;20252;-70
2022/06/30 21:52:25;;;;;;;0.20;0.00;;;24.00;99.90;;;;;;21247637;28;20835;-71
2022/06/30 22:02:30;;;;;;;0.20;0.00;;;23.90;99.90;;;;;;21246649;28;20184;-72
2022/06/30 22:12:34;;;;;;;0.20;0.00;;;23.90;99.90;;;;;;21244327;28;20241;-72
2022/06/30 22:22:39;;;;;;;0.20;0.10;;;23.90;99.90;;;;;;21243426;28;20245;-71
2022/06/30 22:32:43;;;;;;;0.20;0.00;;;24.00;99.90;;;;;;21239352;28;20241;-71
2022/06/30 22:42:48;;;;;;;0.20;0.00;;;24.10;99.90;;;;;;21242844;28;20199;-72
2022/06/30 22:52:52;;;;;;;0.20;0.00;;;23.50;99.90;;;;;;21240903;28;20241;-71
2022/06/30 23:02:57;;;;;;;0.20;0.00;;;23.30;99.90;;;;;;21240199;28;20218;-72
2022/06/30 23:13:01;;;;;;;0.20;0.00;;;23.20;99.90;;;;;;21240288;28;20296;-72
2022/06/30 23:23:07;;;;;;;0.20;0.00;;;23.00;99.90;;;;;;21237464;28;20223;-72
2022/06/30 23:33:12;;;;;;;0.20;0.00;;;22.80;99.90;;;;;;21238313;28;20275;-72
2022/06/30 23:43:18;;;;;;;0.20;0.00;;;22.70;99.90;;;;;;21238457;28;20199;-72
2022/06/30 23:53:22;;;;;;;0.20;0.00;;;22.40;99.90;;;;;;21238646;28;20264;-72
